sensor_id;sensor_type;location;lat;lon;timestamp;P1;durP1;ratioP1;P2;durP2;ratioP2
9789;SDS011;4934;50.852;8.098;2022-08-21T00:02:12;10.45;;;6.35;;
9789;SDS011;4934;50.852;8.098;2022-08-21T00:04:43;10.98;;;6.55;;
9789;SDS011;4934;50.852;8.098;2022-08-21T00:07:09;12.52;;;6.55;;
9789;SDS011;4934;50.852;8.098;2022-08-21T00:09:35;12.65;;;7.15;;
9789;SDS011;4934;50.852;8.098;2022-08-21T00:12:01;11.40;;;6.60;;
9789;SDS011;4934;50.852;8.098;2022-08-21T00:14:27;12.98;;;7.45;;
9789;SDS011;4934;50.852;8.098;2022-08-21T00:16:53;17.02;;;8.45;;
9789;SDS011;4934;50.852;8.098;2022-08-21T00:19:18;15.27;;;7.43;;
9789;SDS011;4934;50.852;8.098;2022-08-21T00:21:44;14.25;;;7.80;;
9789;SDS011;4934;50.852;8.098;2022-08-21T00:24:10;16.83;;;7.65;;
9789;SDS011;4934;50.852;8.098;2022-08-21T00:26:36;14.75;;;7.10;;
9789;SDS011;4934;50.852;8.098;2022-08-21T00:29:02;10.30;;;6.63;;
9789;SDS011;4934;50.852;8.098;2022-08-21T00:31:28;15.63;;;7.80;;
9789;SDS011;4934;50.852;8.098;2022-08-21T00:33:54;13.82;;;7.40;;
9789;SDS011;4934;50.852;8.098;2022-08-21T00:36:20;17.73;;;8.20;;
9789;SDS011;4934;50.852;8.098;2022-08-21T00:38:45;15.35;;;7.68;;
9789;SDS011;4934;50.852;8.098;2022-08-21T00:41:11;11.77;;;6.72;;
9789;SDS011;4934;50.852;8.098;2022-08-21T00:43:37;11.23;;;6.72;;
9789;SDS011;4934;50.852;8.098;2022-08-21T00:46:04;12.70;;;7.60;;
9789;SDS011;4934;50.852;8.098;2022-08-21T00:48:31;13.57;;;7.10;;
9789;SDS011;4934;50.852;8.098;2022-08-21T00:51:00;11.88;;;7.18;;
9789;SDS011;4934;50.852;8.098;2022-08-21T00:53:30;12.25;;;7.15;;
9789;SDS011;4934;50.852;8.098;2022-08-21T00:55:57;16.85;;;7.28;;
9789;SDS011;4934;50.852;8.098;2022-08-21T00:58:25;11.48;;;7.15;;
9789;SDS011;4934;50.852;8.098;2022-08-21T01:00:52;12.48;;;7.13;;
9789;SDS011;4934;50.852;8.098;2022-08-21T01:03:20;13.13;;;8.15;;
9789;SDS011;4934;50.852;8.098;2022-08-21T01:05:47;14.38;;;7.13;;
9789;SDS011;4934;50.852;8.098;2022-08-21T01:08:13;17.20;;;7.88;;
9789;SDS011;4934;50.852;8.098;2022-08-21T01:10:42;15.05;;;7.55;;
9789;SDS011;4934;50.852;8.098;2022-08-21T01:13:09;18.55;;;7.97;;
9789;SDS011;4934;50.852;8.098;2022-08-21T01:15:37;12.55;;;7.78;;
9789;SDS011;4934;50.852;8.098;2022-08-21T01:18:07;13.07;;;6.93;;
9789;SDS011;4934;50.852;8.098;2022-08-21T01:23:03;15.98;;;7.38;;
9789;SDS011;4934;50.852;8.098;2022-08-21T01:25:30;12.45;;;7.45;;
9789;SDS011;4934;50.852;8.098;2022-08-21T01:27:56;19.40;;;7.85;;
9789;SDS011;4934;50.852;8.098;2022-08-21T01:30:27;13.50;;;7.30;;
9789;SDS011;4934;50.852;8.098;2022-08-21T01:32:53;13.18;;;7.40;;
9789;SDS011;4934;50.852;8.098;2022-08-21T01:35:20;14.93;;;8.30;;
9789;SDS011;4934;50.852;8.098;2022-08-21T01:37:46;14.63;;;7.15;;
9789;SDS011;4934;50.852;8.098;2022-08-21T01:40:13;12.65;;;7.50;;
9789;SDS011;4934;50.852;8.098;2022-08-21T01:42:41;12.50;;;7.15;;
9789;SDS011;4934;50.852;8.098;2022-08-21T01:45:08;12.82;;;7.25;;
9789;SDS011;4934;50.852;8.098;2022-08-21T01:47:35;16.15;;;7.45;;
9789;SDS011;4934;50.852;8.098;2022-08-21T01:50:03;17.52;;;8.25;;
9789;SDS011;4934;50.852;8.098;2022-08-21T01:52:30;11.15;;;7.38;;
9789;SDS011;4934;50.852;8.098;2022-08-21T01:54:56;16.95;;;7.72;;
9789;SDS011;4934;50.852;8.098;2022-08-21T01:57:21;13.88;;;7.75;;
9789;SDS011;4934;50.852;8.098;2022-08-21T01:59:47;17.02;;;7.68;;
9789;SDS011;4934;50.852;8.098;2022-08-21T02:02:13;14.07;;;7.90;;
9789;SDS011;4934;50.852;8.098;2022-08-21T02:04:38;16.10;;;8.30;;
9789;SDS011;4934;50.852;8.098;2022-08-21T02:07:04;13.90;;;8.55;;
9789;SDS011;4934;50.852;8.098;2022-08-21T02:09:30;11.25;;;7.15;;
9789;SDS011;4934;50.852;8.098;2022-08-21T02:11:55;13.13;;;7.50;;
9789;SDS011;4934;50.852;8.098;2022-08-21T02:14:21;14.75;;;7.80;;
9789;SDS011;4934;50.852;8.098;2022-08-21T02:16:46;13.43;;;7.80;;
9789;SDS011;4934;50.852;8.098;2022-08-21T02:19:13;19.85;;;8.38;;
9789;SDS011;4934;50.852;8.098;2022-08-21T02:21:40;12.73;;;7.10;;
9789;SDS011;4934;50.852;8.098;2022-08-21T02:24:06;13.13;;;7.32;;
9789;SDS011;4934;50.852;8.098;2022-08-21T02:26:32;13.52;;;7.97;;
9789;SDS011;4934;50.852;8.098;2022-08-21T02:28:58;12.65;;;7.35;;
9789;SDS011;4934;50.852;8.098;2022-08-21T02:31:24;10.65;;;6.32;;
9789;SDS011;4934;50.852;8.098;2022-08-21T02:33:51;13.63;;;7.13;;
9789;SDS011;4934;50.852;8.098;2022-08-21T02:36:16;13.50;;;8.20;;
9789;SDS011;4934;50.852;8.098;2022-08-21T02:38:43;14.35;;;7.93;;
9789;SDS011;4934;50.852;8.098;2022-08-21T02:41:19;16.48;;;8.82;;
9789;SDS011;4934;50.852;8.098;2022-08-21T02:43:46;18.40;;;10.15;;
9789;SDS011;4934;50.852;8.098;2022-08-21T02:46:12;14.32;;;7.60;;
9789;SDS011;4934;50.852;8.098;2022-08-21T02:51:16;18.33;;;8.35;;
9789;SDS011;4934;50.852;8.098;2022-08-21T02:53:43;14.25;;;8.05;;
9789;SDS011;4934;50.852;8.098;2022-08-21T02:56:11;13.95;;;7.18;;
9789;SDS011;4934;50.852;8.098;2022-08-21T02:58:39;16.80;;;8.27;;
9789;SDS011;4934;50.852;8.098;2022-08-21T03:03:37;17.58;;;7.70;;
9789;SDS011;4934;50.852;8.098;2022-08-21T03:06:05;16.08;;;8.05;;
9789;SDS011;4934;50.852;8.098;2022-08-21T03:08:33;13.45;;;7.25;;
9789;SDS011;4934;50.852;8.098;2022-08-21T03:10:59;12.57;;;8.00;;
9789;SDS011;4934;50.852;8.098;2022-08-21T03:13:26;18.63;;;8.13;;
9789;SDS011;4934;50.852;8.098;2022-08-21T03:15:52;14.55;;;7.40;;
9789;SDS011;4934;50.852;8.098;2022-08-21T03:18:18;15.15;;;7.32;;
9789;SDS011;4934;50.852;8.098;2022-08-21T03:20:44;19.85;;;9.68;;
9789;SDS011;4934;50.852;8.098;2022-08-21T03:23:11;13.68;;;7.55;;
9789;SDS011;4934;50.852;8.098;2022-08-21T03:25:37;15.10;;;7.68;;
9789;SDS011;4934;50.852;8.098;2022-08-21T03:28:05;16.55;;;8.48;;
9789;SDS011;4934;50.852;8.098;2022-08-21T03:30:34;18.85;;;8.32;;
9789;SDS011;4934;50.852;8.098;2022-08-21T03:33:00;16.42;;;8.05;;
9789;SDS011;4934;50.852;8.098;2022-08-21T03:35:26;14.07;;;7.47;;
9789;SDS011;4934;50.852;8.098;2022-08-21T03:37:52;15.57;;;7.97;;
9789;SDS011;4934;50.852;8.098;2022-08-21T03:40:19;14.52;;;7.55;;
9789;SDS011;4934;50.852;8.098;2022-08-21T03:42:46;14.60;;;8.18;;
9789;SDS011;4934;50.852;8.098;2022-08-21T03:45:13;15.10;;;7.82;;
9789;SDS011;4934;50.852;8.098;2022-08-21T03:47:50;18.48;;;9.25;;
9789;SDS011;4934;50.852;8.098;2022-08-21T03:50:17;14.55;;;8.93;;
9789;SDS011;4934;50.852;8.098;2022-08-21T03:52:43;16.30;;;8.55;;
9789;SDS011;4934;50.852;8.098;2022-08-21T03:55:09;20.92;;;9.25;;
9789;SDS011;4934;50.852;8.098;2022-08-21T03:57:35;16.15;;;8.48;;
9789;SDS011;4934;50.852;8.098;2022-08-21T04:00:00;15.57;;;8.50;;
9789;SDS011;4934;50.852;8.098;2022-08-21T04:02:26;24.33;;;8.60;;
9789;SDS011;4934;50.852;8.098;2022-08-21T04:04:52;18.15;;;9.07;;
9789;SDS011;4934;50.852;8.098;2022-08-21T04:07:17;14.10;;;8.27;;
9789;SDS011;4934;50.852;8.098;2022-08-21T04:09:43;13.25;;;7.80;;
9789;SDS011;4934;50.852;8.098;2022-08-21T04:12:08;16.45;;;8.20;;
9789;SDS011;4934;50.852;8.098;2022-08-21T04:14:34;14.05;;;8.13;;
9789;SDS011;4934;50.852;8.098;2022-08-21T04:17:00;16.45;;;8.00;;
9789;SDS011;4934;50.852;8.098;2022-08-21T04:19:26;15.93;;;8.13;;
9789;SDS011;4934;50.852;8.098;2022-08-21T04:21:51;12.10;;;7.85;;
9789;SDS011;4934;50.852;8.098;2022-08-21T04:24:17;15.77;;;7.93;;
9789;SDS011;4934;50.852;8.098;2022-08-21T04:26:44;17.42;;;7.45;;
9789;SDS011;4934;50.852;8.098;2022-08-21T04:29:09;15.15;;;7.75;;
9789;SDS011;4934;50.852;8.098;2022-08-21T04:31:35;17.00;;;8.38;;
9789;SDS011;4934;50.852;8.098;2022-08-21T04:34:02;12.90;;;8.00;;
9789;SDS011;4934;50.852;8.098;2022-08-21T04:36:29;12.07;;;6.70;;
9789;SDS011;4934;50.852;8.098;2022-08-21T04:38:56;16.38;;;7.68;;
9789;SDS011;4934;50.852;8.098;2022-08-21T04:41:22;13.93;;;7.63;;
9789;SDS011;4934;50.852;8.098;2022-08-21T04:43:48;14.07;;;8.23;;
9789;SDS011;4934;50.852;8.098;2022-08-21T04:46:14;13.80;;;7.90;;
9789;SDS011;4934;50.852;8.098;2022-08-21T04:48:40;14.15;;;7.45;;
9789;SDS011;4934;50.852;8.098;2022-08-21T04:51:07;16.95;;;8.48;;
9789;SDS011;4934;50.852;8.098;2022-08-21T04:53:41;15.95;;;8.85;;
9789;SDS011;4934;50.852;8.098;2022-08-21T04:56:13;15.27;;;8.80;;
9789;SDS011;4934;50.852;8.098;2022-08-21T04:58:44;14.18;;;7.95;;
9789;SDS011;4934;50.852;8.098;2022-08-21T05:01:13;18.42;;;8.18;;
9789;SDS011;4934;50.852;8.098;2022-08-21T05:03:42;19.98;;;9.02;;
9789;SDS011;4934;50.852;8.098;2022-08-21T05:06:09;19.20;;;8.63;;
9789;SDS011;4934;50.852;8.098;2022-08-21T05:08:38;14.23;;;8.45;;
9789;SDS011;4934;50.852;8.098;2022-08-21T05:11:05;14.85;;;8.32;;
9789;SDS011;4934;50.852;8.098;2022-08-21T05:13:31;18.33;;;9.15;;
9789;SDS011;4934;50.852;8.098;2022-08-21T05:15:57;12.65;;;8.10;;
9789;SDS011;4934;50.852;8.098;2022-08-21T05:18:24;15.13;;;8.75;;
9789;SDS011;4934;50.852;8.098;2022-08-21T05:20:50;13.23;;;7.18;;
9789;SDS011;4934;50.852;8.098;2022-08-21T05:23:15;16.27;;;8.05;;
9789;SDS011;4934;50.852;8.098;2022-08-21T05:25:42;14.40;;;8.52;;
9789;SDS011;4934;50.852;8.098;2022-08-21T05:28:08;15.00;;;8.48;;
9789;SDS011;4934;50.852;8.098;2022-08-21T05:30:35;17.83;;;8.32;;
9789;SDS011;4934;50.852;8.098;2022-08-21T05:33:02;13.00;;;8.30;;
9789;SDS011;4934;50.852;8.098;2022-08-21T05:35:30;16.45;;;9.20;;
9789;SDS011;4934;50.852;8.098;2022-08-21T05:37:57;14.95;;;8.25;;
9789;SDS011;4934;50.852;8.098;2022-08-21T05:40:23;15.85;;;8.70;;
9789;SDS011;4934;50.852;8.098;2022-08-21T05:42:52;17.60;;;8.95;;
9789;SDS011;4934;50.852;8.098;2022-08-21T05:45:19;14.43;;;8.52;;
9789;SDS011;4934;50.852;8.098;2022-08-21T05:47:46;15.73;;;8.75;;
9789;SDS011;4934;50.852;8.098;2022-08-21T05:50:11;17.17;;;8.85;;
9789;SDS011;4934;50.852;8.098;2022-08-21T05:52:37;20.30;;;9.85;;
9789;SDS011;4934;50.852;8.098;2022-08-21T05:55:03;15.52;;;8.68;;
9789;SDS011;4934;50.852;8.098;2022-08-21T05:57:29;19.52;;;9.23;;
9789;SDS011;4934;50.852;8.098;2022-08-21T05:59:55;14.85;;;8.15;;
9789;SDS011;4934;50.852;8.098;2022-08-21T06:02:22;13.02;;;8.38;;
9789;SDS011;4934;50.852;8.098;2022-08-21T06:04:50;20.05;;;9.32;;
9789;SDS011;4934;50.852;8.098;2022-08-21T06:07:16;12.68;;;8.18;;
9789;SDS011;4934;50.852;8.098;2022-08-21T06:09:41;15.25;;;8.48;;
9789;SDS011;4934;50.852;8.098;2022-08-21T06:12:08;15.18;;;8.30;;
9789;SDS011;4934;50.852;8.098;2022-08-21T06:14:44;16.20;;;8.77;;
9789;SDS011;4934;50.852;8.098;2022-08-21T06:17:10;14.27;;;8.45;;
9789;SDS011;4934;50.852;8.098;2022-08-21T06:19:38;13.93;;;8.20;;
9789;SDS011;4934;50.852;8.098;2022-08-21T06:22:04;12.38;;;7.45;;
9789;SDS011;4934;50.852;8.098;2022-08-21T06:24:30;14.75;;;7.97;;
9789;SDS011;4934;50.852;8.098;2022-08-21T06:26:56;17.20;;;8.75;;
9789;SDS011;4934;50.852;8.098;2022-08-21T06:29:22;13.40;;;8.00;;
9789;SDS011;4934;50.852;8.098;2022-08-21T06:31:49;15.45;;;8.40;;
9789;SDS011;4934;50.852;8.098;2022-08-21T06:34:16;12.00;;;7.43;;
9789;SDS011;4934;50.852;8.098;2022-08-21T06:36:41;17.15;;;8.40;;
9789;SDS011;4934;50.852;8.098;2022-08-21T06:39:07;19.42;;;8.85;;
9789;SDS011;4934;50.852;8.098;2022-08-21T06:41:33;14.63;;;8.40;;
9789;SDS011;4934;50.852;8.098;2022-08-21T06:43:59;22.63;;;11.40;;
9789;SDS011;4934;50.852;8.098;2022-08-21T06:46:26;19.13;;;9.65;;
9789;SDS011;4934;50.852;8.098;2022-08-21T06:48:54;16.50;;;8.77;;
9789;SDS011;4934;50.852;8.098;2022-08-21T06:51:19;17.48;;;8.57;;
9789;SDS011;4934;50.852;8.098;2022-08-21T06:53:45;17.13;;;9.20;;
9789;SDS011;4934;50.852;8.098;2022-08-21T06:56:12;21.75;;;10.23;;
9789;SDS011;4934;50.852;8.098;2022-08-21T06:58:39;22.40;;;10.75;;
9789;SDS011;4934;50.852;8.098;2022-08-21T07:01:05;22.38;;;11.55;;
9789;SDS011;4934;50.852;8.098;2022-08-21T07:03:32;22.25;;;10.82;;
9789;SDS011;4934;50.852;8.098;2022-08-21T07:06:02;16.17;;;9.57;;
9789;SDS011;4934;50.852;8.098;2022-08-21T07:08:29;24.85;;;10.02;;
9789;SDS011;4934;50.852;8.098;2022-08-21T07:10:55;18.13;;;9.68;;
9789;SDS011;4934;50.852;8.098;2022-08-21T07:13:23;20.25;;;10.07;;
9789;SDS011;4934;50.852;8.098;2022-08-21T07:15:48;18.77;;;10.98;;
9789;SDS011;4934;50.852;8.098;2022-08-21T07:18:14;17.40;;;9.75;;
9789;SDS011;4934;50.852;8.098;2022-08-21T07:20:40;17.27;;;9.07;;
9789;SDS011;4934;50.852;8.098;2022-08-21T07:23:10;22.40;;;9.70;;
9789;SDS011;4934;50.852;8.098;2022-08-21T07:25:42;18.23;;;9.10;;
9789;SDS011;4934;50.852;8.098;2022-08-21T07:28:08;16.92;;;8.88;;
9789;SDS011;4934;50.852;8.098;2022-08-21T07:30:34;15.63;;;9.25;;
9789;SDS011;4934;50.852;8.098;2022-08-21T07:32:59;21.60;;;9.35;;
9789;SDS011;4934;50.852;8.098;2022-08-21T07:35:25;22.45;;;9.68;;
9789;SDS011;4934;50.852;8.098;2022-08-21T07:37:52;15.25;;;8.80;;
9789;SDS011;4934;50.852;8.098;2022-08-21T07:40:18;15.27;;;8.10;;
9789;SDS011;4934;50.852;8.098;2022-08-21T07:42:45;15.73;;;9.15;;
9789;SDS011;4934;50.852;8.098;2022-08-21T07:45:13;15.43;;;8.77;;
9789;SDS011;4934;50.852;8.098;2022-08-21T07:47:39;16.88;;;7.43;;
9789;SDS011;4934;50.852;8.098;2022-08-21T07:50:05;17.48;;;8.65;;
9789;SDS011;4934;50.852;8.098;2022-08-21T07:52:31;17.70;;;8.18;;
9789;SDS011;4934;50.852;8.098;2022-08-21T07:54:58;19.67;;;8.00;;
9789;SDS011;4934;50.852;8.098;2022-08-21T07:57:24;13.77;;;7.43;;
9789;SDS011;4934;50.852;8.098;2022-08-21T07:59:49;13.80;;;7.40;;
9789;SDS011;4934;50.852;8.098;2022-08-21T08:02:22;14.02;;;8.10;;
9789;SDS011;4934;50.852;8.098;2022-08-21T08:04:52;16.55;;;7.05;;
9789;SDS011;4934;50.852;8.098;2022-08-21T08:07:18;18.38;;;6.82;;
9789;SDS011;4934;50.852;8.098;2022-08-21T08:09:44;14.35;;;6.00;;
9789;SDS011;4934;50.852;8.098;2022-08-21T08:12:11;15.50;;;7.35;;
9789;SDS011;4934;50.852;8.098;2022-08-21T08:14:37;13.02;;;6.63;;
9789;SDS011;4934;50.852;8.098;2022-08-21T08:17:03;13.32;;;6.55;;
9789;SDS011;4934;50.852;8.098;2022-08-21T08:19:28;19.38;;;6.72;;
9789;SDS011;4934;50.852;8.098;2022-08-21T08:21:57;10.30;;;6.00;;
9789;SDS011;4934;50.852;8.098;2022-08-21T08:24:30;15.55;;;6.65;;
9789;SDS011;4934;50.852;8.098;2022-08-21T08:26:56;22.02;;;7.25;;
9789;SDS011;4934;50.852;8.098;2022-08-21T08:29:24;14.15;;;6.57;;
9789;SDS011;4934;50.852;8.098;2022-08-21T08:31:51;15.13;;;6.23;;
9789;SDS011;4934;50.852;8.098;2022-08-21T08:34:17;11.65;;;5.30;;
9789;SDS011;4934;50.852;8.098;2022-08-21T08:36:44;12.45;;;4.97;;
9789;SDS011;4934;50.852;8.098;2022-08-21T08:39:11;9.15;;;4.78;;
9789;SDS011;4934;50.852;8.098;2022-08-21T08:41:37;16.92;;;6.57;;
9789;SDS011;4934;50.852;8.098;2022-08-21T08:44:04;13.13;;;4.55;;
9789;SDS011;4934;50.852;8.098;2022-08-21T08:49:09;7.43;;;3.50;;
9789;SDS011;4934;50.852;8.098;2022-08-21T08:51:48;11.60;;;3.70;;
9789;SDS011;4934;50.852;8.098;2022-08-21T08:54:30;8.73;;;3.92;;
9789;SDS011;4934;50.852;8.098;2022-08-21T08:57:07;9.55;;;3.80;;
9789;SDS011;4934;50.852;8.098;2022-08-21T08:59:49;11.18;;;3.88;;
9789;SDS011;4934;50.852;8.098;2022-08-21T09:02:18;15.68;;;4.45;;
9789;SDS011;4934;50.852;8.098;2022-08-21T09:04:52;14.90;;;4.78;;
9789;SDS011;4934;50.852;8.098;2022-08-21T09:10:06;11.43;;;3.90;;
9789;SDS011;4934;50.852;8.098;2022-08-21T09:24:01;7.97;;;1.70;;
9789;SDS011;4934;50.852;8.098;2022-08-21T09:26:51;4.97;;;1.95;;
9789;SDS011;4934;50.852;8.098;2022-08-21T09:29:20;7.00;;;2.10;;
9789;SDS011;4934;50.852;8.098;2022-08-21T09:31:50;9.48;;;2.55;;
9789;SDS011;4934;50.852;8.098;2022-08-21T09:34:24;10.43;;;3.83;;
9789;SDS011;4934;50.852;8.098;2022-08-21T09:36:54;12.23;;;4.18;;
9789;SDS011;4934;50.852;8.098;2022-08-21T09:39:25;8.27;;;3.33;;
9789;SDS011;4934;50.852;8.098;2022-08-21T09:42:00;7.43;;;2.97;;
9789;SDS011;4934;50.852;8.098;2022-08-21T09:44:33;5.82;;;3.03;;
9789;SDS011;4934;50.852;8.098;2022-08-21T09:47:04;10.57;;;3.42;;
9789;SDS011;4934;50.852;8.098;2022-08-21T09:49:35;10.02;;;3.33;;
9789;SDS011;4934;50.852;8.098;2022-08-21T09:52:04;11.43;;;3.58;;
9789;SDS011;4934;50.852;8.098;2022-08-21T09:54:40;22.63;;;4.05;;
9789;SDS011;4934;50.852;8.098;2022-08-21T09:59:53;7.57;;;3.08;;
9789;SDS011;4934;50.852;8.098;2022-08-21T10:02:31;9.30;;;3.13;;
9789;SDS011;4934;50.852;8.098;2022-08-21T10:05:06;12.95;;;3.97;;
9789;SDS011;4934;50.852;8.098;2022-08-21T10:07:40;15.43;;;3.60;;
9789;SDS011;4934;50.852;8.098;2022-08-21T10:10:16;6.38;;;2.88;;
9789;SDS011;4934;50.852;8.098;2022-08-21T10:18:35;8.35;;;2.47;;
9789;SDS011;4934;50.852;8.098;2022-08-21T10:34:38;6.55;;;2.53;;
9789;SDS011;4934;50.852;8.098;2022-08-21T10:37:34;9.10;;;3.58;;
9789;SDS011;4934;50.852;8.098;2022-08-21T10:48:48;6.70;;;2.40;;
9789;SDS011;4934;50.852;8.098;2022-08-21T10:51:30;6.30;;;2.10;;
9789;SDS011;4934;50.852;8.098;2022-08-21T10:54:17;6.40;;;2.60;;
9789;SDS011;4934;50.852;8.098;2022-08-21T10:58:14;7.80;;;2.10;;
9789;SDS011;4934;50.852;8.098;2022-08-21T11:00:21;5.47;;;2.13;;
9789;SDS011;4934;50.852;8.098;2022-08-21T11:02:51;9.70;;;2.88;;
9789;SDS011;4934;50.852;8.098;2022-08-21T11:05:20;8.90;;;2.40;;
9789;SDS011;4934;50.852;8.098;2022-08-21T11:08:01;7.38;;;2.50;;
9789;SDS011;4934;50.852;8.098;2022-08-21T11:10:40;7.45;;;2.05;;
9789;SDS011;4934;50.852;8.098;2022-08-21T11:13:17;11.45;;;2.70;;
9789;SDS011;4934;50.852;8.098;2022-08-21T11:18:37;7.22;;;2.47;;
9789;SDS011;4934;50.852;8.098;2022-08-21T11:23:42;5.97;;;2.47;;
9789;SDS011;4934;50.852;8.098;2022-08-21T11:26:13;4.90;;;2.20;;
9789;SDS011;4934;50.852;8.098;2022-08-21T11:28:51;6.30;;;2.17;;
9789;SDS011;4934;50.852;8.098;2022-08-21T11:31:32;7.03;;;2.75;;
9789;SDS011;4934;50.852;8.098;2022-08-21T11:42:17;4.93;;;1.98;;
9789;SDS011;4934;50.852;8.098;2022-08-21T11:45:13;7.50;;;2.20;;
9789;SDS011;4934;50.852;8.098;2022-08-21T11:48:03;8.15;;;2.20;;
9789;SDS011;4934;50.852;8.098;2022-08-21T11:50:50;7.57;;;2.38;;
9789;SDS011;4934;50.852;8.098;2022-08-21T12:01:31;12.20;;;2.30;;
9789;SDS011;4934;50.852;8.098;2022-08-21T12:06:35;3.55;;;2.13;;
9789;SDS011;4934;50.852;8.098;2022-08-21T12:09:51;7.17;;;2.27;;
9789;SDS011;4934;50.852;8.098;2022-08-21T12:11:51;5.20;;;1.90;;
9789;SDS011;4934;50.852;8.098;2022-08-21T12:14:24;7.25;;;1.60;;
9789;SDS011;4934;50.852;8.098;2022-08-21T12:19:30;3.88;;;1.60;;
9789;SDS011;4934;50.852;8.098;2022-08-21T12:22:08;7.45;;;2.13;;
9789;SDS011;4934;50.852;8.098;2022-08-21T12:24:48;5.38;;;1.65;;
9789;SDS011;4934;50.852;8.098;2022-08-21T12:27:19;5.47;;;2.05;;
9789;SDS011;4934;50.852;8.098;2022-08-21T12:29:55;5.93;;;1.90;;
9789;SDS011;4934;50.852;8.098;2022-08-21T12:32:28;4.72;;;1.77;;
9789;SDS011;4934;50.852;8.098;2022-08-21T12:37:46;7.03;;;2.05;;
9789;SDS011;4934;50.852;8.098;2022-08-21T12:40:22;8.75;;;1.80;;
9789;SDS011;4934;50.852;8.098;2022-08-21T12:42:53;9.63;;;2.10;;
9789;SDS011;4934;50.852;8.098;2022-08-21T12:45:30;3.42;;;1.50;;
9789;SDS011;4934;50.852;8.098;2022-08-21T12:49:06;5.00;;;1.80;;
9789;SDS011;4934;50.852;8.098;2022-08-21T12:51:08;5.10;;;1.60;;
9789;SDS011;4934;50.852;8.098;2022-08-21T12:56:30;3.40;;;1.80;;
9789;SDS011;4934;50.852;8.098;2022-08-21T12:59:03;4.82;;;1.63;;
9789;SDS011;4934;50.852;8.098;2022-08-21T13:01:48;5.40;;;1.50;;
9789;SDS011;4934;50.852;8.098;2022-08-21T13:04:20;5.28;;;1.92;;
9789;SDS011;4934;50.852;8.098;2022-08-21T13:06:51;3.75;;;1.40;;
9789;SDS011;4934;50.852;8.098;2022-08-21T13:09:20;4.18;;;1.52;;
9789;SDS011;4934;50.852;8.098;2022-08-21T13:11:51;4.32;;;1.70;;
9789;SDS011;4934;50.852;8.098;2022-08-21T13:17:17;5.35;;;1.60;;
9789;SDS011;4934;50.852;8.098;2022-08-21T13:19:53;4.82;;;1.60;;
9789;SDS011;4934;50.852;8.098;2022-08-21T13:22:39;3.90;;;1.30;;
9789;SDS011;4934;50.852;8.098;2022-08-21T13:25:09;5.85;;;1.65;;
9789;SDS011;4934;50.852;8.098;2022-08-21T13:27:40;4.45;;;1.40;;
9789;SDS011;4934;50.852;8.098;2022-08-21T13:30:10;6.75;;;1.95;;
9789;SDS011;4934;50.852;8.098;2022-08-21T13:32:43;3.00;;;1.42;;
9789;SDS011;4934;50.852;8.098;2022-08-21T13:35:11;6.28;;;1.52;;
9789;SDS011;4934;50.852;8.098;2022-08-21T13:37:41;4.78;;;1.15;;
9789;SDS011;4934;50.852;8.098;2022-08-21T13:40:13;2.50;;;1.23;;
9789;SDS011;4934;50.852;8.098;2022-08-21T13:42:43;4.47;;;1.73;;
9789;SDS011;4934;50.852;8.098;2022-08-21T13:45:12;5.30;;;1.65;;
9789;SDS011;4934;50.852;8.098;2022-08-21T13:47:39;6.80;;;2.08;;
9789;SDS011;4934;50.852;8.098;2022-08-21T13:50:06;5.40;;;1.60;;
9789;SDS011;4934;50.852;8.098;2022-08-21T13:52:32;2.72;;;1.30;;
9789;SDS011;4934;50.852;8.098;2022-08-21T13:55:09;2.53;;;1.15;;
9789;SDS011;4934;50.852;8.098;2022-08-21T13:57:40;3.58;;;1.52;;
9789;SDS011;4934;50.852;8.098;2022-08-21T14:00:25;3.92;;;1.40;;
9789;SDS011;4934;50.852;8.098;2022-08-21T14:02:52;5.55;;;2.10;;
9789;SDS011;4934;50.852;8.098;2022-08-21T14:05:28;3.03;;;1.60;;
9789;SDS011;4934;50.852;8.098;2022-08-21T14:08:07;5.50;;;1.60;;
9789;SDS011;4934;50.852;8.098;2022-08-21T14:10:41;2.97;;;1.30;;
9789;SDS011;4934;50.852;8.098;2022-08-21T14:16:00;2.67;;;1.15;;
9789;SDS011;4934;50.852;8.098;2022-08-21T14:18:32;2.95;;;1.33;;
9789;SDS011;4934;50.852;8.098;2022-08-21T14:21:23;4.88;;;1.35;;
9789;SDS011;4934;50.852;8.098;2022-08-21T14:26:29;2.97;;;1.50;;
9789;SDS011;4934;50.852;8.098;2022-08-21T14:28:57;7.32;;;1.52;;
9789;SDS011;4934;50.852;8.098;2022-08-21T14:31:28;1.75;;;0.98;;
9789;SDS011;4934;50.852;8.098;2022-08-21T14:33:55;1.95;;;1.17;;
9789;SDS011;4934;50.852;8.098;2022-08-21T14:36:23;3.38;;;1.23;;
9789;SDS011;4934;50.852;8.098;2022-08-21T14:38:49;4.32;;;1.23;;
9789;SDS011;4934;50.852;8.098;2022-08-21T14:41:19;6.00;;;1.40;;
9789;SDS011;4934;50.852;8.098;2022-08-21T14:43:47;5.20;;;1.40;;
9789;SDS011;4934;50.852;8.098;2022-08-21T14:46:18;4.07;;;1.57;;
9789;SDS011;4934;50.852;8.098;2022-08-21T14:48:49;7.05;;;1.33;;
9789;SDS011;4934;50.852;8.098;2022-08-21T14:51:15;1.67;;;1.05;;
9789;SDS011;4934;50.852;8.098;2022-08-21T14:53:42;4.03;;;1.10;;
9789;SDS011;4934;50.852;8.098;2022-08-21T14:56:07;3.28;;;1.48;;
9789;SDS011;4934;50.852;8.098;2022-08-21T14:58:35;4.50;;;1.33;;
9789;SDS011;4934;50.852;8.098;2022-08-21T15:01:04;3.35;;;0.70;;
9789;SDS011;4934;50.852;8.098;2022-08-21T15:03:34;2.42;;;1.00;;
9789;SDS011;4934;50.852;8.098;2022-08-21T15:06:02;1.40;;;1.10;;
9789;SDS011;4934;50.852;8.098;2022-08-21T15:08:30;4.35;;;1.27;;
9789;SDS011;4934;50.852;8.098;2022-08-21T15:10:57;4.68;;;1.35;;
9789;SDS011;4934;50.852;8.098;2022-08-21T15:13:23;2.03;;;1.15;;
9789;SDS011;4934;50.852;8.098;2022-08-21T15:15:50;4.57;;;1.27;;
9789;SDS011;4934;50.852;8.098;2022-08-21T15:18:19;4.57;;;1.25;;
9789;SDS011;4934;50.852;8.098;2022-08-21T15:20:46;3.03;;;1.02;;
9789;SDS011;4934;50.852;8.098;2022-08-21T15:23:12;2.80;;;1.17;;
9789;SDS011;4934;50.852;8.098;2022-08-21T15:25:39;3.35;;;0.85;;
9789;SDS011;4934;50.852;8.098;2022-08-21T15:28:07;3.22;;;1.23;;
9789;SDS011;4934;50.852;8.098;2022-08-21T15:30:36;2.22;;;1.05;;
9789;SDS011;4934;50.852;8.098;2022-08-21T15:33:03;3.17;;;1.33;;
9789;SDS011;4934;50.852;8.098;2022-08-21T15:35:29;2.72;;;1.48;;
9789;SDS011;4934;50.852;8.098;2022-08-21T15:37:56;3.10;;;1.23;;
9789;SDS011;4934;50.852;8.098;2022-08-21T15:40:22;2.63;;;1.25;;
9789;SDS011;4934;50.852;8.098;2022-08-21T15:42:49;2.60;;;1.00;;
9789;SDS011;4934;50.852;8.098;2022-08-21T15:45:18;4.40;;;1.30;;
9789;SDS011;4934;50.852;8.098;2022-08-21T15:47:45;4.60;;;1.20;;
9789;SDS011;4934;50.852;8.098;2022-08-21T15:50:15;4.13;;;1.20;;
9789;SDS011;4934;50.852;8.098;2022-08-21T15:52:45;4.70;;;1.27;;
9789;SDS011;4934;50.852;8.098;2022-08-21T15:55:13;3.65;;;1.50;;
9789;SDS011;4934;50.852;8.098;2022-08-21T15:57:44;4.03;;;1.63;;
9789;SDS011;4934;50.852;8.098;2022-08-21T16:00:12;3.08;;;1.30;;
9789;SDS011;4934;50.852;8.098;2022-08-21T16:02:44;3.72;;;1.45;;
9789;SDS011;4934;50.852;8.098;2022-08-21T16:05:13;5.32;;;1.77;;
9789;SDS011;4934;50.852;8.098;2022-08-21T16:07:41;3.50;;;1.30;;
9789;SDS011;4934;50.852;8.098;2022-08-21T16:10:08;1.42;;;1.20;;
9789;SDS011;4934;50.852;8.098;2022-08-21T16:12:36;4.38;;;1.45;;
9789;SDS011;4934;50.852;8.098;2022-08-21T16:15:05;2.83;;;1.23;;
9789;SDS011;4934;50.852;8.098;2022-08-21T16:17:35;4.15;;;1.40;;
9789;SDS011;4934;50.852;8.098;2022-08-21T16:20:04;3.90;;;0.95;;
9789;SDS011;4934;50.852;8.098;2022-08-21T16:22:33;6.20;;;1.23;;
9789;SDS011;4934;50.852;8.098;2022-08-21T16:24:59;3.13;;;1.20;;
9789;SDS011;4934;50.852;8.098;2022-08-21T16:27:25;2.72;;;1.10;;
9789;SDS011;4934;50.852;8.098;2022-08-21T16:29:50;2.92;;;0.98;;
9789;SDS011;4934;50.852;8.098;2022-08-21T16:32:16;1.98;;;1.08;;
9789;SDS011;4934;50.852;8.098;2022-08-21T16:34:44;4.63;;;1.00;;
9789;SDS011;4934;50.852;8.098;2022-08-21T16:37:11;3.35;;;1.45;;
9789;SDS011;4934;50.852;8.098;2022-08-21T16:39:38;4.50;;;1.38;;
9789;SDS011;4934;50.852;8.098;2022-08-21T16:42:04;2.85;;;1.50;;
9789;SDS011;4934;50.852;8.098;2022-08-21T16:44:31;2.88;;;1.25;;
9789;SDS011;4934;50.852;8.098;2022-08-21T16:46:59;6.63;;;1.55;;
9789;SDS011;4934;50.852;8.098;2022-08-21T16:49:25;2.72;;;1.40;;
9789;SDS011;4934;50.852;8.098;2022-08-21T16:51:51;4.32;;;1.20;;
9789;SDS011;4934;50.852;8.098;2022-08-21T16:54:17;3.22;;;1.17;;
9789;SDS011;4934;50.852;8.098;2022-08-21T16:56:43;4.70;;;1.48;;